Time;durP1;ratioP1;P1;durP2;ratioP2;P2;SDS_P1;SDS_P2;PMS_P1;PMS_P2;Temp;Humidity;BMP_temperature;BMP_pressure;BME280_temperature;BME280_humidity;BME280_pressure;Samples;Min_cycle;Max_cycle;Signal;HPM_P1;HPM_P2
2021/11/20 00:02:05;;;;;;;37.95;8.18;;;;;;;10.74;74.00;101162.84;5092629;28;20039;-76
2021/11/20 00:04:30;;;;;;;35.63;6.32;;;;;;;10.73;73.89;101144.84;5074222;28;20031;-76
2021/11/20 00:06:56;;;;;;;24.42;5.50;;;;;;;10.74;73.62;101179.19;5093511;28;20023;-76
2021/11/20 00:09:23;;;;;;;26.15;6.35;;;;;;;10.74;73.38;101157.38;5089337;28;20040;-76
2021/11/20 00:11:49;;;;;;;26.80;5.47;;;;;;;10.73;73.48;101158.47;5074848;28;20051;-77
2021/11/20 00:14:15;;;;;;;31.33;6.25;;;;;;;10.73;73.47;101148.38;5093330;28;20073;-76
2021/11/20 00:16:41;;;;;;;28.05;4.93;;;;;;;10.73;73.61;101180.28;5074379;28;20114;-76
2021/11/20 00:19:07;;;;;;;33.30;7.53;;;;;;;10.75;73.43;101164.47;5038705;28;20024;-76
2021/11/20 00:21:38;;;;;;;25.48;5.63;;;;;;;10.73;73.31;101158.47;5089300;28;20026;-76
2021/11/20 00:24:05;;;;;;;27.90;6.43;;;;;;;10.72;73.07;101144.03;5089822;28;20024;-76
2021/11/20 00:26:34;;;;;;;29.67;7.10;;;;;;;10.73;73.10;101155.75;5074900;28;20032;-76
2021/11/20 00:29:18;;;;;;;23.95;4.93;;;;;;;10.70;72.87;101157.09;5055288;28;20115;-77
2021/11/20 00:31:48;;;;;;;22.70;5.15;;;;;;;10.71;73.01;101179.72;5090565;28;20556;-77
2021/11/20 00:34:16;;;;;;;33.75;6.22;;;;;;;10.70;72.66;101139.91;5093243;28;20034;-77
2021/11/20 00:36:42;;;;;;;33.50;6.93;;;;;;;10.69;72.84;101149.97;5073364;28;20032;-78
2021/11/20 00:39:10;;;;;;;22.38;5.82;;;;;;;10.68;72.81;101155.72;5075591;28;20066;-78
2021/11/20 00:41:35;;;;;;;37.15;7.15;;;;;;;10.67;72.66;101154.91;5091025;28;20036;-78
2021/11/20 00:44:02;;;;;;;32.45;5.82;;;;;;;10.68;72.55;101163.91;5075096;28;20024;-78
2021/11/20 00:46:28;;;;;;;37.58;6.07;;;;;;;10.66;72.48;101189.50;5077532;28;20024;-77
2021/11/20 00:48:54;;;;;;;27.98;5.50;;;;;;;10.69;72.51;101173.72;5071460;28;20016;-78
2021/11/20 00:51:21;;;;;;;30.15;5.75;;;;;;;10.69;72.46;101168.25;5067600;28;20027;-78
2021/11/20 00:53:46;;;;;;;27.25;5.68;;;;;;;10.68;72.32;101180.25;5079050;28;20024;-78
2021/11/20 00:56:14;;;;;;;29.88;4.90;;;;;;;10.69;72.02;101179.16;5054594;28;20504;-78
2021/11/20 00:58:40;;;;;;;24.55;4.53;;;;;;;10.70;71.75;101180.81;5072693;28;20112;-78
2021/11/20 01:01:09;;;;;;;25.42;6.28;;;;;;;10.69;71.84;101154.63;5065125;28;20114;-78
2021/11/20 01:03:34;;;;;;;23.38;5.40;;;;;;;10.65;71.83;101165.25;5091378;28;20097;-78
2021/11/20 01:06:00;;;;;;;31.27;5.20;;;;;;;10.64;71.81;101180.78;5082034;28;20474;-77
2021/11/20 01:08:27;;;;;;;25.63;5.15;;;;;;;10.62;71.99;101161.13;5071132;28;20744;-77
2021/11/20 01:11:03;;;;;;;26.48;5.55;;;;;;;10.60;71.86;101163.31;5081436;28;20032;-77
2021/11/20 01:13:29;;;;;;;25.13;6.57;;;;;;;10.60;71.98;101165.22;5091573;28;20024;-78
2021/11/20 01:15:57;;;;;;;29.83;6.88;;;;;;;10.58;72.12;101165.47;5091342;28;20100;-77
2021/11/20 01:18:23;;;;;;;20.73;5.20;;;;;;;10.58;72.10;101170.91;5092577;28;20518;-77
2021/11/20 01:20:49;;;;;;;27.60;5.65;;;;;;;10.56;71.93;101156.75;5076759;28;20477;-78
2021/11/20 01:23:15;;;;;;;23.15;4.47;;;;;;;10.56;72.05;101172.31;5078635;28;20059;-77
2021/11/20 01:25:42;;;;;;;29.98;5.53;;;;;;;10.55;71.78;101152.38;5091439;28;20028;-78
2021/11/20 01:28:07;;;;;;;28.75;5.78;;;;;;;10.54;71.86;101158.91;5091239;28;20020;-77
2021/11/20 01:30:33;;;;;;;20.58;4.30;;;;;;;10.55;71.94;101168.72;5087462;28;20073;-77
2021/11/20 01:32:58;;;;;;;37.05;6.07;;;;;;;10.55;72.23;101151.56;5078187;28;20662;-77
2021/11/20 01:35:24;;;;;;;39.70;6.97;;;;;;;10.55;72.25;101148.84;5087257;28;20474;-77
2021/11/20 01:37:50;;;;;;;33.22;5.97;;;;;;;10.53;72.39;101162.75;5072395;28;20105;-78
2021/11/20 01:40:18;;;;;;;33.08;5.82;;;;;;;10.52;72.24;101138.47;5072212;28;20414;-78
2021/11/20 01:42:43;;;;;;;30.33;7.18;;;;;;;10.53;72.20;101151.84;5070845;28;20490;-77
2021/11/20 01:45:17;;;;;;;31.13;6.63;;;;;;;10.52;72.14;101158.34;5071861;28;20063;-77
2021/11/20 01:47:48;;;;;;;30.50;6.25;;;;;;;10.54;71.86;101158.09;5074477;28;20073;-77
2021/11/20 01:50:17;;;;;;;32.73;5.57;;;;;;;10.56;71.67;101188.66;5076315;28;20354;-78
2021/11/20 01:52:42;;;;;;;25.48;4.30;;;;;;;10.55;72.01;101187.81;5077699;28;20040;-78
2021/11/20 01:55:23;;;;;;;22.48;5.13;;;;;;;10.55;72.16;101182.34;5075400;28;20049;-78
2021/11/20 01:57:57;;;;;;;23.58;5.13;;;;;;;10.55;72.21;101185.09;5095227;28;20081;-78
2021/11/20 02:00:25;;;;;;;30.58;5.55;;;;;;;10.54;72.24;101188.91;5093934;28;20430;-78
2021/11/20 02:03:00;;;;;;;26.67;5.93;;;;;;;10.53;72.58;101190.00;5094681;28;20087;-78
2021/11/20 02:05:37;;;;;;;27.10;4.82;;;;;;;10.52;72.32;101199.25;5094807;28;20028;-78
2021/11/20 02:08:15;;;;;;;24.13;5.28;;;;;;;10.53;72.53;101189.16;5094900;28;20031;-78
2021/11/20 02:11:01;;;;;;;28.77;5.60;;;;;;;10.52;72.47;101168.44;5089037;28;20025;-77
2021/11/20 02:13:28;;;;;;;31.02;5.93;;;;;;;10.49;72.53;101156.16;5074362;28;20565;-77
2021/11/20 02:16:15;;;;;;;28.80;6.20;;;;;;;10.47;72.67;101147.41;5073983;28;20486;-77
2021/11/20 02:18:44;;;;;;;27.80;5.38;;;;;;;10.44;72.79;101142.50;5059500;28;20033;-75
2021/11/20 02:21:17;;;;;;;28.95;5.55;;;;;;;10.42;72.78;101131.03;5074075;28;20024;-77
2021/11/20 02:23:42;;;;;;;27.60;4.40;;;;;;;10.41;72.57;101126.69;5077599;28;20113;-77
2021/11/20 02:26:08;;;;;;;26.73;5.90;;;;;;;10.41;72.62;101126.69;5082859;28;20469;-77
2021/11/20 02:28:33;;;;;;;33.25;5.00;;;;;;;10.43;72.68;101124.50;5095510;28;20031;-77
2021/11/20 02:31:00;;;;;;;27.42;5.82;;;;;;;10.44;72.62;101128.88;5093154;28;20024;-77
2021/11/20 02:33:31;;;;;;;34.65;5.07;;;;;;;10.44;72.52;101126.16;5095504;28;20051;-77
2021/11/20 02:35:59;;;;;;;28.27;6.03;;;;;;;10.47;72.57;101135.69;5093170;28;20016;-78
2021/11/20 02:38:29;;;;;;;25.70;6.28;;;;;;;10.46;72.45;101143.06;5094139;28;20042;-77
2021/11/20 02:40:55;;;;;;;24.90;4.88;;;;;;;10.47;72.45;101150.16;5088963;28;20043;-77
2021/11/20 02:43:20;;;;;;;31.73;4.72;;;;;;;10.48;72.54;101137.34;5075240;28;20111;-77
2021/11/20 02:45:48;;;;;;;25.45;5.95;;;;;;;10.48;72.23;101170.06;5074692;28;20386;-77
2021/11/20 02:48:13;;;;;;;25.25;6.10;;;;;;;10.50;72.01;101135.97;5075096;28;20045;-77
2021/11/20 02:50:45;;;;;;;24.60;5.53;;;;;;;10.51;72.14;101137.66;5077342;28;20043;-78
2021/11/20 02:53:30;;;;;;;26.40;4.38;;;;;;;10.51;72.19;101156.72;5072208;28;20028;-77
2021/11/20 02:55:56;;;;;;;27.13;5.20;;;;;;;10.50;72.17;101146.88;5074310;28;20028;-78
2021/11/20 02:58:23;;;;;;;19.42;4.47;;;;;;;10.50;72.07;101140.63;5073879;28;20109;-78
2021/11/20 03:00:52;;;;;;;25.60;5.32;;;;;;;10.50;72.18;101146.88;5077160;28;20157;-78
2021/11/20 03:03:20;;;;;;;26.05;4.78;;;;;;;10.52;72.04;101144.72;5094004;28;20051;-78
2021/11/20 03:05:45;;;;;;;27.42;4.75;;;;;;;10.52;72.01;101128.38;5092513;28;20020;-77
2021/11/20 03:08:11;;;;;;;24.92;4.47;;;;;;;10.52;72.15;101122.91;5073440;28;20397;-77
2021/11/20 03:10:36;;;;;;;22.45;4.20;;;;;;;10.53;72.52;101124.56;5074183;28;20531;-76
2021/11/20 03:13:02;;;;;;;28.52;5.55;;;;;;;10.53;72.82;101121.00;5073245;28;20032;-76
2021/11/20 03:15:28;;;;;;;20.98;4.93;;;;;;;10.52;72.98;101122.91;5077092;28;20036;-77
2021/11/20 03:17:53;;;;;;;26.52;6.15;;;;;;;10.50;72.81;101114.16;5074320;28;20474;-77
2021/11/20 03:20:19;;;;;;;21.40;6.22;;;;;;;10.51;72.89;101137.66;5074320;28;20024;-75
2021/11/20 03:22:55;;;;;;;29.17;5.32;;;;;;;10.50;72.57;101149.63;5072539;28;20036;-76
2021/11/20 03:25:21;;;;;;;27.85;5.30;;;;;;;10.52;72.35;101117.47;5074245;28;20020;-76
2021/11/20 03:27:46;;;;;;;20.27;4.90;;;;;;;10.52;72.57;101119.38;5090339;28;20388;-77
2021/11/20 03:30:12;;;;;;;29.00;4.90;;;;;;;10.52;72.82;101136.53;5093115;28;20027;-76
2021/11/20 03:32:38;;;;;;;22.13;6.43;;;;;;;10.51;72.82;101137.66;5091825;28;20397;-76
2021/11/20 03:35:04;;;;;;;36.85;6.88;;;;;;;10.53;72.78;101119.13;5076155;28;20051;-77
2021/11/20 03:37:30;;;;;;;28.50;5.40;;;;;;;10.53;72.92;101119.13;5091915;28;20039;-77
2021/11/20 03:39:55;;;;;;;26.15;5.03;;;;;;;10.54;72.98;101123.47;5094436;28;20390;-76
2021/11/20 03:42:21;;;;;;;33.75;7.35;;;;;;;10.53;73.10;101127.31;5085197;28;20161;-77
2021/11/20 03:44:46;;;;;;;28.85;4.72;;;;;;;10.54;72.82;101123.47;5072676;28;20103;-77
2021/11/20 03:47:12;;;;;;;29.70;5.15;;;;;;;10.55;72.88;101154.28;5080569;28;20020;-76
2021/11/20 03:49:37;;;;;;;32.85;5.65;;;;;;;10.57;72.82;101113.94;5094032;28;20031;-76
2021/11/20 03:52:03;;;;;;;27.38;5.20;;;;;;;10.56;73.08;101091.31;5088163;28;20032;-77
2021/11/20 03:54:29;;;;;;;27.88;6.70;;;;;;;10.55;73.27;101105.22;5072537;28;20082;-76
2021/11/20 03:56:54;;;;;;;33.95;5.72;;;;;;;10.55;73.53;101100.56;5072364;28;20101;-76
2021/11/20 03:59:20;;;;;;;33.92;7.13;;;;;;;10.54;73.87;101093.50;5073648;28;20027;-76
2021/11/20 04:01:45;;;;;;;29.35;6.88;;;;;;;10.53;73.99;101108.22;5075070;28;20034;-77
2021/11/20 04:04:11;;;;;;;25.42;4.95;;;;;;;10.54;74.47;101103.59;5072409;28;20024;-77
2021/11/20 04:06:36;;;;;;;25.20;6.20;;;;;;;10.55;74.98;101116.94;5074003;28;20373;-76
2021/11/20 04:09:02;;;;;;;29.25;6.43;;;;;;;10.55;74.77;101116.94;5093658;28;20024;-76
2021/11/20 04:11:30;;;;;;;29.85;6.18;;;;;;;10.56;74.88;101118.59;5092935;28;20028;-76
2021/11/20 04:13:56;;;;;;;39.15;7.30;;;;;;;10.55;74.85;101092.38;5092811;28;20024;-76
2021/11/20 04:16:22;;;;;;;42.45;7.82;;;;;;;10.55;75.00;101095.13;5075346;28;20154;-76
2021/11/20 04:18:49;;;;;;;36.88;6.88;;;;;;;10.53;75.44;101080.97;5075166;28;20028;-77
2021/11/20 04:21:15;;;;;;;29.38;5.82;;;;;;;10.53;75.85;101086.41;5089776;28;20426;-77
2021/11/20 04:23:41;;;;;;;46.78;7.75;;;;;;;10.53;76.39;101097.31;5074292;28;20032;-77
2021/11/20 04:26:07;;;;;;;31.10;5.20;;;;;;;10.53;77.02;101110.09;5073402;28;20035;-76
2021/11/20 04:28:33;;;;;;;45.58;7.78;;;;;;;10.52;77.66;101112.00;5087162;28;20465;-76
2021/11/20 04:30:59;;;;;;;29.17;5.82;;;;;;;10.50;78.33;101092.38;5093339;28;20024;-76
2021/11/20 04:33:25;;;;;;;23.45;4.80;;;;;;;10.48;78.80;101085.56;5074096;28;20028;-76
2021/11/20 04:35:50;;;;;;;27.30;4.60;;;;;;;10.48;79.29;101080.94;5093127;28;20465;-76
2021/11/20 04:38:16;;;;;;;33.88;6.57;;;;;;;10.46;79.18;101076.81;5079483;28;20031;-77
2021/11/20 04:40:41;;;;;;;37.63;6.63;;;;;;;10.44;79.47;101063.44;5072911;28;20031;-76
2021/11/20 04:43:07;;;;;;;43.47;6.40;;;;;;;10.43;79.63;101075.44;5072792;28;20179;-76
2021/11/20 04:45:35;;;;;;;32.85;5.93;;;;;;;10.43;79.52;101064.56;5072845;28;20480;-77
2021/11/20 04:48:02;;;;;;;37.80;6.25;;;;;;;10.42;79.83;101057.44;5065414;28;20024;-77
2021/11/20 04:50:27;;;;;;;31.50;6.40;;;;;;;10.41;79.75;101066.72;5072106;28;20095;-77
2021/11/20 04:52:53;;;;;;;36.30;7.25;;;;;;;10.41;79.50;101075.69;5081501;28;20035;-76
2021/11/20 04:55:18;;;;;;;35.85;7.18;;;;;;;10.43;79.64;101057.19;5091768;28;20023;-77
2021/11/20 04:57:44;;;;;;;23.05;6.63;;;;;;;10.43;79.72;101073.53;5084312;28;20051;-77
2021/11/20 05:00:16;;;;;;;35.78;5.30;;;;;;;10.43;79.73;101056.38;5054662;28;20025;-77
2021/11/20 05:02:41;;;;;;;33.50;6.00;;;;;;;10.44;79.64;101066.19;5078282;28;20043;-76
2021/11/20 05:05:07;;;;;;;38.63;5.38;;;;;;;10.44;79.91;101074.34;5091733;28;20462;-76
2021/11/20 05:07:32;;;;;;;23.23;5.28;;;;;;;10.44;79.84;101071.63;5090332;28;20108;-77
2021/11/20 05:09:58;;;;;;;25.52;6.22;;;;;;;10.43;80.09;101059.09;5092672;28;20530;-77
2021/11/20 05:12:24;;;;;;;28.98;5.22;;;;;;;10.43;80.37;101048.19;5090310;28;20031;-77
2021/11/20 05:14:49;;;;;;;29.08;5.25;;;;;;;10.42;80.31;101055.56;5091042;28;20067;-77
2021/11/20 05:17:15;;;;;;;22.77;5.28;;;;;;;10.41;80.20;101072.97;5091391;28;20044;-77
2021/11/20 05:19:40;;;;;;;23.23;5.45;;;;;;;10.43;80.12;101113.63;5091225;28;20024;-77
2021/11/20 05:22:06;;;;;;;25.50;5.20;;;;;;;10.42;80.07;101046.53;5089192;28;20024;-78
2021/11/20 05:24:32;;;;;;;47.25;7.70;;;;;;;10.42;79.95;101062.88;5072395;28;20478;-76
2021/11/20 05:27:00;;;;;;;36.70;6.35;;;;;;;10.42;80.06;101069.19;5070733;28;20098;-77
2021/11/20 05:31:51;;;;;;;29.08;4.75;;;;;;;10.41;79.82;101037.53;5076967;28;20031;-77
2021/11/20 05:34:16;;;;;;;24.83;5.07;;;;;;;10.42;79.65;101043.81;5054996;28;20485;-77
2021/11/20 05:36:42;;;;;;;32.22;6.45;;;;;;;10.43;79.41;101049.00;5072203;28;20029;-77
2021/11/20 05:39:08;;;;;;;28.33;6.35;;;;;;;10.43;79.79;101053.66;5071988;28;20039;-77
2021/11/20 05:41:33;;;;;;;26.05;5.30;;;;;;;10.42;79.57;101033.75;5071105;28;20025;-78
2021/11/20 05:43:59;;;;;;;33.75;6.80;;;;;;;10.43;79.77;101050.91;5087212;28;20027;-77
2021/11/20 05:46:24;;;;;;;33.50;6.00;;;;;;;10.42;79.97;101038.34;5092222;28;20114;-77
2021/11/20 05:48:50;;;;;;;29.90;6.30;;;;;;;10.42;79.81;101041.09;5089871;28;20028;-77
2021/11/20 05:51:15;;;;;;;38.22;6.40;;;;;;;10.44;79.88;101038.91;5092165;28;20069;-77
2021/11/20 05:53:41;;;;;;;23.63;6.43;;;;;;;10.43;80.04;101026.38;5073288;28;20456;-77
2021/11/20 05:56:06;;;;;;;29.85;6.00;;;;;;;10.43;80.20;101018.22;5074106;28;20027;-77
2021/11/20 05:58:32;;;;;;;23.35;4.90;;;;;;;10.42;80.20;101041.09;5079927;28;20177;-77
2021/11/20 06:01:01;;;;;;;30.63;6.03;;;;;;;10.43;80.39;101034.56;5072075;28;20032;-77
2021/11/20 06:03:26;;;;;;;38.33;5.13;;;;;;;10.42;80.47;101024.72;5064362;28;20028;-77
2021/11/20 06:05:52;;;;;;;24.90;5.63;;;;;;;10.43;80.59;101023.66;5091077;28;20020;-77
2021/11/20 06:08:19;;;;;;;32.28;5.53;;;;;;;10.43;80.82;101018.22;5091096;28;20027;-77
2021/11/20 06:10:45;;;;;;;31.52;6.68;;;;;;;10.40;80.81;101002.41;5089937;28;20086;-77
2021/11/20 06:13:10;;;;;;;23.23;4.05;;;;;;;10.38;80.61;101018.19;5082015;28;20473;-77
2021/11/20 06:15:36;;;;;;;24.60;4.10;;;;;;;10.38;80.13;100996.38;5070479;28;20044;-77
2021/11/20 06:18:02;;;;;;;11.63;2.35;;;;;;;10.38;78.97;100997.19;5075127;28;20042;-77
2021/11/20 06:20:27;;;;;;;12.38;2.67;;;;;;;10.42;77.56;100994.75;5082366;28;20032;-77
2021/11/20 06:22:53;;;;;;;12.90;3.03;;;;;;;10.43;76.85;101004.59;5073067;28;20541;-77
2021/11/20 06:25:19;;;;;;;6.05;1.13;;;;;;;10.44;75.58;100995.31;5092004;28;20065;-77
2021/11/20 06:27:44;;;;;;;8.18;1.20;;;;;;;10.47;74.02;100999.41;5090734;28;20477;-77
2021/11/20 06:30:12;;;;;;;4.63;1.25;;;;;;;10.45;73.07;100986.06;5092159;28;20024;-77
2021/11/20 06:32:38;;;;;;;9.05;1.55;;;;;;;10.45;72.40;100986.06;5090485;28;20067;-76
2021/11/20 06:35:04;;;;;;;7.07;1.48;;;;;;;10.43;71.52;100993.69;5094504;28;20024;-77
2021/11/20 06:37:30;;;;;;;5.80;1.05;;;;;;;10.43;70.85;100993.69;5093693;28;20062;-77
2021/11/20 06:39:55;;;;;;;9.48;1.63;;;;;;;10.42;70.71;100997.47;5075112;28;20029;-77
2021/11/20 06:42:21;;;;;;;8.93;2.00;;;;;;;10.39;71.03;100989.84;5074883;28;20214;-76
2021/11/20 06:44:47;;;;;;;6.60;1.48;;;;;;;10.36;71.06;100995.81;5075015;28;20028;-76
2021/11/20 06:47:12;;;;;;;5.10;1.08;;;;;;;10.32;69.74;100981.13;5075486;28;20024;-76
2021/11/20 06:49:38;;;;;;;9.02;1.25;;;;;;;10.31;69.70;100982.19;5091938;28;20036;-76
2021/11/20 06:52:04;;;;;;;6.00;1.33;;;;;;;10.27;69.74;100983.78;5095222;28;20031;-76
2021/11/20 06:54:29;;;;;;;6.25;1.45;;;;;;;10.23;69.73;100987.03;5076864;28;20057;-76
2021/11/20 06:57:04;;;;;;;6.03;0.98;;;;;;;10.13;69.98;100988.91;5074952;28;20386;-77
2021/11/20 07:02:17;;;;;;;8.23;1.30;;;;;;;9.88;70.95;100976.00;5079240;28;20078;-77
2021/11/20 07:04:42;;;;;;;7.72;1.75;;;;;;;9.78;71.93;100987.63;5074424;28;20028;-77
2021/11/20 07:07:09;;;;;;;12.95;1.50;;;;;;;9.69;72.46;100983.78;5074817;28;20025;-79
2021/11/20 07:09:36;;;;;;;7.90;1.30;;;;;;;9.59;72.77;100968.19;5090562;28;20103;-78
2021/11/20 07:12:02;;;;;;;10.13;1.80;;;;;;;9.53;73.23;100971.97;5076458;28;20024;-79
2021/11/20 07:14:28;;;;;;;9.85;1.67;;;;;;;9.47;73.62;100975.75;5093887;28;20015;-78
2021/11/20 07:16:53;;;;;;;10.27;1.92;;;;;;;9.40;73.92;100977.84;5094801;28;20496;-79
2021/11/20 07:19:19;;;;;;;7.35;1.30;;;;;;;9.30;74.73;100968.56;5092786;28;20097;-79
2021/11/20 07:21:44;;;;;;;8.45;1.63;;;;;;;9.25;75.09;100975.84;5093665;28;20109;-79
2021/11/20 07:24:12;;;;;;;7.72;1.83;;;;;;;9.20;75.19;100970.38;5092768;28;20023;-79
2021/11/20 07:26:37;;;;;;;11.48;1.60;;;;;;;9.17;75.59;100982.59;5094894;28;20016;-79
2021/11/20 07:29:04;;;;;;;3.58;0.85;;;;;;;9.14;75.83;100965.94;5085743;28;20020;-80
2021/11/20 07:31:29;;;;;;;6.18;1.20;;;;;;;9.10;76.13;100969.19;5057973;28;20039;-79
2021/11/20 07:33:54;;;;;;;8.63;1.23;;;;;;;9.07;76.13;100964.28;5083934;28;20115;-80
2021/11/20 07:36:21;;;;;;;4.15;1.10;;;;;;;9.03;76.31;100965.88;5074300;28;20028;-80
2021/11/20 07:38:51;;;;;;;7.47;1.02;;;;;;;9.00;76.63;100960.13;5074168;28;20447;-80
2021/11/20 07:41:17;;;;;;;7.78;1.10;;;;;;;8.98;77.15;100963.13;5056760;28;20103;-81
2021/11/20 07:43:42;;;;;;;5.97;1.30;;;;;;;8.97;77.41;100960.66;5090366;28;20488;-81
2021/11/20 07:46:08;;;;;;;4.70;1.02;;;;;;;8.95;77.64;100951.91;5093061;28;20016;-81
2021/11/20 07:48:37;;;;;;;6.57;1.13;;;;;;;8.96;77.61;100937.25;5074690;28;20111;-79
2021/11/20 07:51:03;;;;;;;6.60;1.02;;;;;;;8.94;77.89;100945.66;5092497;28;20060;-81
2021/11/20 07:53:29;;;;;;;4.03;0.90;;;;;;;8.95;77.84;100951.91;5080040;28;20028;-81
2021/11/20 07:55:54;;;;;;;5.30;0.98;;;;;;;8.94;78.06;100939.41;5072672;28;20109;-82
2021/11/20 07:58:20;;;;;;;6.15;1.33;;;;;;;8.94;78.05;100933.97;5074124;28;20103;-80
2021/11/20 08:00:45;;;;;;;7.38;1.35;;;;;;;8.92;78.19;100926.09;5090210;28;20057;-80
2021/11/20 08:03:11;;;;;;;9.85;1.20;;;;;;;8.92;78.43;100925.25;5091829;28;20028;-80
2021/11/20 08:05:37;;;;;;;10.82;1.08;;;;;;;8.93;78.47;100911.41;5093058;28;20023;-81
2021/11/20 08:08:03;;;;;;;7.28;1.45;;;;;;;8.94;78.45;100915.75;5093022;28;20024;-81
2021/11/20 08:10:29;;;;;;;7.18;1.20;;;;;;;8.95;78.72;100914.69;5076047;28;20071;-82
2021/11/20 08:12:55;;;;;;;5.15;1.05;;;;;;;8.97;78.69;100917.13;5091720;28;20107;-81
2021/11/20 08:15:21;;;;;;;9.52;2.17;;;;;;;8.95;78.96;100914.69;5088107;28;20711;-81
2021/11/20 08:17:46;;;;;;;6.60;1.10;;;;;;;8.95;78.93;100897.53;5079052;28;20032;-81
2021/11/20 08:20:13;;;;;;;4.05;0.90;;;;;;;8.95;79.07;100903.81;5093974;28;20069;-82
2021/11/20 08:22:40;;;;;;;6.88;1.15;;;;;;;8.96;78.89;100896.47;5074981;28;20043;-81
2021/11/20 08:25:06;;;;;;;4.28;0.80;;;;;;;8.97;79.22;100889.94;5075488;28;20024;-82
2021/11/20 08:27:32;;;;;;;3.13;0.80;;;;;;;8.95;79.02;100887.50;5091282;28;20047;-81
2021/11/20 08:29:57;;;;;;;4.65;0.75;;;;;;;8.92;79.25;100876.31;5093340;28;20042;-82
2021/11/20 08:32:23;;;;;;;3.30;1.08;;;;;;;8.88;79.35;100879.53;5091037;28;20029;-82
2021/11/20 08:34:48;;;;;;;7.20;3.03;;;;;;;8.83;79.14;100879.50;5093483;28;20016;-82
2021/11/20 08:37:14;;;;;;;14.00;7.38;;;;;;;8.83;79.31;100886.84;5090362;28;20503;-81
2021/11/20 08:39:40;;;;;;;6.25;1.20;;;;;;;8.81;79.59;100876.25;5071643;28;20067;-81
2021/11/20 08:42:05;;;;;;;5.38;3.45;;;;;;;8.81;79.74;100878.97;5072712;28;20343;-81
2021/11/20 08:44:31;;;;;;;4.65;0.88;;;;;;;8.78;79.61;100857.72;5072596;28;20054;-82
2021/11/20 08:46:56;;;;;;;7.15;4.72;;;;;;;8.80;79.90;100862.91;5090300;28;20024;-81
2021/11/20 08:49:22;;;;;;;11.25;3.83;;;;;;;8.78;80.00;100852.28;5073929;28;20028;-81
2021/11/20 08:51:49;;;;;;;2.72;2.03;;;;;;;8.77;80.41;100847.94;5072800;28;20032;-81
2021/11/20 08:54:16;;;;;;;3.90;1.60;;;;;;;8.70;80.33;100858.19;5072487;28;20056;-81
2021/11/20 08:56:43;;;;;;;4.63;0.70;;;;;;;8.64;80.23;100864.66;5071777;28;20031;-81
2021/11/20 08:59:10;;;;;;;6.47;2.28;;;;;;;8.57;80.32;100847.78;5054681;28;20070;-81
2021/11/20 09:01:45;;;;;;;5.80;1.92;;;;;;;8.56;80.57;100851.56;5071278;28;20518;-80
2021/11/20 09:04:22;;;;;;;3.63;1.55;;;;;;;8.55;80.60;100847.22;5088064;28;20024;-81
2021/11/20 09:06:53;;;;;;;7.40;2.53;;;;;;;8.56;80.88;100833.34;5092672;28;20452;-81
2021/11/20 09:09:40;;;;;;;3.55;1.02;;;;;;;8.55;81.07;100823.56;5073550;28;20033;-81
2021/11/20 09:12:13;;;;;;;8.85;1.10;;;;;;;8.54;80.94;100823.81;5072351;28;20032;-80
2021/11/20 09:14:42;;;;;;;2.20;0.80;;;;;;;8.54;81.29;100827.38;5090211;28;20074;-81
2021/11/20 09:17:08;;;;;;;5.70;1.23;;;;;;;8.56;81.52;100830.63;5089356;28;20032;-81
2021/11/20 09:19:35;;;;;;;8.55;1.00;;;;;;;8.57;81.59;100821.41;5091056;28;20024;-82
2021/11/20 09:22:00;;;;;;;5.03;0.90;;;;;;;8.58;81.77;100816.81;5091283;28;20030;-81
2021/11/20 09:24:27;;;;;;;3.30;0.77;;;;;;;8.57;81.86;100805.13;5073893;28;20024;-81
2021/11/20 09:26:53;;;;;;;4.85;1.20;;;;;;;8.61;82.31;100805.41;5054102;28;20390;-82
2021/11/20 09:29:19;;;;;;;9.30;1.23;;;;;;;8.61;82.14;100799.97;5088013;28;20107;-82
2021/11/20 09:31:45;;;;;;;8.23;1.67;;;;;;;8.60;82.68;100796.44;5086258;28;20094;-81
2021/11/20 09:34:11;;;;;;;7.07;1.45;;;;;;;8.59;82.40;100791.25;5085614;28;20059;-82
2021/11/20 09:36:36;;;;;;;5.38;0.90;;;;;;;8.65;83.00;100795.66;5074164;28;20046;-81
2021/11/20 09:39:06;;;;;;;11.27;1.45;;;;;;;8.70;83.19;100781.28;5073214;28;20032;-82
2021/11/20 09:41:56;;;;;;;5.88;1.55;;;;;;;8.72;83.20;100779.13;5091081;28;20488;-81
2021/11/20 09:44:21;;;;;;;5.40;1.40;;;;;;;8.70;82.91;100779.38;5091436;28;20054;-82
2021/11/20 09:46:49;;;;;;;2.90;1.20;;;;;;;8.70;83.21;100775.84;5092299;28;20425;-82
2021/11/20 09:49:15;;;;;;;6.22;1.50;;;;;;;8.71;83.40;100777.50;5076403;28;20085;-82
2021/11/20 09:51:43;;;;;;;6.68;1.08;;;;;;;8.72;83.78;100768.25;5072063;28;20036;-82
2021/11/20 09:54:10;;;;;;;6.55;1.20;;;;;;;8.74;83.62;100766.91;5071967;28;20020;-81
2021/11/20 09:56:48;;;;;;;5.60;1.10;;;;;;;8.75;83.84;100757.66;5070676;28;20410;-82
2021/11/20 09:59:25;;;;;;;3.28;1.00;;;;;;;8.74;83.94;100757.94;5086091;28;20504;-82
2021/11/20 10:01:55;;;;;;;5.00;1.10;;;;;;;8.75;84.10;100749.50;5074849;28;20056;-82
2021/11/20 10:04:33;;;;;;;6.78;1.40;;;;;;;8.78;84.55;100743.53;5073754;28;20117;-81
2021/11/20 10:07:14;;;;;;;3.40;1.30;;;;;;;8.80;84.37;100733.22;5092367;28;20024;-81
2021/11/20 10:09:45;;;;;;;4.50;0.77;;;;;;;8.81;84.54;100724.03;5077267;28;20035;-81
2021/11/20 10:12:40;;;;;;;1.35;0.60;;;;;;;8.84;84.91;100728.13;5093915;28;20031;-82
2021/11/20 10:15:10;;;;;;;1.00;0.60;;;;;;;8.91;84.67;100725.16;5075403;28;20076;-82
2021/11/20 10:17:38;;;;;;;7.88;1.25;;;;;;;8.94;84.69;100716.44;5075516;28;20046;-82
2021/11/20 10:20:22;;;;;;;3.30;0.85;;;;;;;8.97;84.86;100715.91;5075575;28;20134;-82
2021/11/20 10:23:04;;;;;;;1.92;0.55;;;;;;;8.97;84.58;100711.28;5075417;28;20090;-82
2021/11/20 10:25:48;;;;;;;;;;;;;;;8.99;84.70;100700.16;5074627;28;20058;-82
2021/11/20 10:28:32;;;;;;;1.98;0.80;;;;;;;8.96;84.52;100703.41;5080217;28;19948;-82
2021/11/20 10:31:05;;;;;;;2.80;0.80;;;;;;;8.87;84.79;100689.53;5095704;28;20503;-82
2021/11/20 10:33:47;;;;;;;2.58;0.55;;;;;;;8.78;84.97;100691.09;5086839;28;20481;-82
2021/11/20 10:36:12;;;;;;;2.35;0.60;;;;;;;8.72;85.12;100679.38;5074077;28;20542;-82
2021/11/20 10:38:53;;;;;;;2.08;0.60;;;;;;;8.72;85.11;100682.09;5082101;28;20024;-82
2021/11/20 10:41:32;;;;;;;1.77;0.47;;;;;;;8.74;85.05;100674.50;5078186;28;20028;-82
2021/11/20 10:44:22;;;;;;;4.68;0.80;;;;;;;8.72;85.15;100673.94;5083655;28;20028;-82
2021/11/20 10:47:12;;;;;;;5.95;1.00;;;;;;;8.73;85.49;100661.16;5071441;28;20029;-81
2021/11/20 10:50:09;;;;;;;2.33;0.90;;;;;;;8.75;85.66;100659.81;5073842;28;20021;-81
2021/11/20 10:53:11;;;;;;;2.22;0.60;;;;;;;8.78;85.60;100659.28;5075030;28;20024;-81
2021/11/20 10:55:46;;;;;;;1.95;0.70;;;;;;;8.82;85.55;100665.84;5073829;28;20028;-81
2021/11/20 10:58:24;;;;;;;4.65;0.80;;;;;;;8.84;85.38;100652.81;5057804;28;20110;-80
2021/11/20 11:01:28;;;;;;;3.78;1.20;;;;;;;8.83;85.77;100636.75;5074788;28;20039;-81
2021/11/20 11:04:19;;;;;;;1.10;0.60;;;;;;;8.83;85.73;100634.84;5073516;28;20017;-81
2021/11/20 11:07:04;;;;;;;1.85;1.10;;;;;;;8.84;85.85;100622.91;5073625;28;20082;-81
2021/11/20 11:09:51;;;;;;;3.47;0.80;;;;;;;8.85;86.05;100616.38;5088744;28;20153;-80
2021/11/20 11:12:45;;;;;;;0.90;0.38;;;;;;;8.85;86.03;100604.69;5093604;28;20028;-80
2021/11/20 11:15:27;;;;;;;1.20;0.63;;;;;;;8.84;86.10;100593.00;5090899;28;20389;-80
2021/11/20 11:17:57;;;;;;;4.50;0.70;;;;;;;8.85;85.81;100589.19;5093422;28;20499;-81
2021/11/20 11:20:48;;;;;;;1.10;0.40;;;;;;;8.85;86.18;100583.75;5093532;28;20492;-80
2021/11/20 11:23:13;;;;;;;1.55;0.43;;;;;;;8.82;86.12;100573.41;5091536;28;20036;-81
2021/11/20 11:25:51;;;;;;;1.55;0.50;;;;;;;8.81;86.44;100579.94;5094580;28;20366;-81
2021/11/20 11:28:27;;;;;;;0.68;0.50;;;;;;;8.84;86.42;100563.09;5090104;28;20073;-81
2021/11/20 11:31:27;;;;;;;0.38;0.35;;;;;;;8.88;86.55;100555.22;5057671;28;20040;-81
2021/11/20 11:34:03;;;;;;;2.15;0.47;;;;;;;8.85;86.45;100556.56;5080332;28;20114;-81
2021/11/20 11:36:31;;;;;;;0.90;0.40;;;;;;;8.81;86.63;100549.19;5093207;28;20390;-81
2021/11/20 11:38:56;;;;;;;0.40;0.38;;;;;;;8.80;86.69;100536.72;5084978;28;20034;-81